sensor_id;sensor_type;location;lat;lon;timestamp;P1;durP1;ratioP1;P2;durP2;ratioP2
23782;SDS011;12071;50.850;4.446;2024-01-30T00:01:15;6.35;;;4.30;;
23782;SDS011;12071;50.850;4.446;2024-01-30T00:03:41;6.78;;;4.22;;
23782;SDS011;12071;50.850;4.446;2024-01-30T00:06:07;6.22;;;4.65;;
23782;SDS011;12071;50.850;4.446;2024-01-30T00:08:33;7.50;;;4.80;;
23782;SDS011;12071;50.850;4.446;2024-01-30T00:10:59;7.57;;;4.50;;
23782;SDS011;12071;50.850;4.446;2024-01-30T00:13:24;6.72;;;4.53;;
23782;SDS011;12071;50.850;4.446;2024-01-30T00:15:50;8.25;;;4.80;;
23782;SDS011;12071;50.850;4.446;2024-01-30T00:18:16;6.13;;;4.25;;
23782;SDS011;12071;50.850;4.446;2024-01-30T00:20:41;7.13;;;4.40;;
23782;SDS011;12071;50.850;4.446;2024-01-30T00:23:08;4.72;;;4.00;;
23782;SDS011;12071;50.850;4.446;2024-01-30T00:25:33;7.00;;;4.20;;
23782;SDS011;12071;50.850;4.446;2024-01-30T00:27:59;6.72;;;4.60;;
23782;SDS011;12071;50.850;4.446;2024-01-30T00:30:25;6.65;;;4.22;;
23782;SDS011;12071;50.850;4.446;2024-01-30T00:32:51;7.28;;;4.30;;
23782;SDS011;12071;50.850;4.446;2024-01-30T00:35:16;7.57;;;4.82;;
23782;SDS011;12071;50.850;4.446;2024-01-30T00:37:42;7.20;;;4.13;;
23782;SDS011;12071;50.850;4.446;2024-01-30T00:40:08;5.40;;;4.22;;
23782;SDS011;12071;50.850;4.446;2024-01-30T00:42:35;6.97;;;4.15;;
23782;SDS011;12071;50.850;4.446;2024-01-30T00:45:01;7.18;;;4.40;;
23782;SDS011;12071;50.850;4.446;2024-01-30T00:47:26;6.13;;;4.25;;
23782;SDS011;12071;50.850;4.446;2024-01-30T00:49:54;8.23;;;4.07;;
23782;SDS011;12071;50.850;4.446;2024-01-30T00:52:19;6.95;;;4.32;;
23782;SDS011;12071;50.850;4.446;2024-01-30T00:54:45;7.25;;;4.70;;
23782;SDS011;12071;50.850;4.446;2024-01-30T00:57:10;7.97;;;4.32;;
23782;SDS011;12071;50.850;4.446;2024-01-30T00:59:36;8.43;;;4.32;;
23782;SDS011;12071;50.850;4.446;2024-01-30T01:02:02;6.78;;;4.78;;
23782;SDS011;12071;50.850;4.446;2024-01-30T01:04:29;8.02;;;4.88;;
23782;SDS011;12071;50.850;4.446;2024-01-30T01:06:54;8.57;;;4.40;;
23782;SDS011;12071;50.850;4.446;2024-01-30T01:09:20;6.18;;;4.13;;
23782;SDS011;12071;50.850;4.446;2024-01-30T01:11:45;9.30;;;4.63;;
23782;SDS011;12071;50.850;4.446;2024-01-30T01:14:11;7.25;;;4.70;;
23782;SDS011;12071;50.850;4.446;2024-01-30T01:16:37;5.22;;;4.10;;
23782;SDS011;12071;50.850;4.446;2024-01-30T01:19:02;7.90;;;4.18;;
23782;SDS011;12071;50.850;4.446;2024-01-30T01:21:28;7.00;;;4.40;;
23782;SDS011;12071;50.850;4.446;2024-01-30T01:23:54;6.45;;;4.30;;
23782;SDS011;12071;50.850;4.446;2024-01-30T01:26:19;7.22;;;4.20;;
23782;SDS011;12071;50.850;4.446;2024-01-30T01:28:46;7.07;;;4.25;;
23782;SDS011;12071;50.850;4.446;2024-01-30T01:31:12;7.80;;;4.00;;
23782;SDS011;12071;50.850;4.446;2024-01-30T01:33:37;7.22;;;4.45;;
23782;SDS011;12071;50.850;4.446;2024-01-30T01:36:03;6.03;;;3.70;;
23782;SDS011;12071;50.850;4.446;2024-01-30T01:38:29;7.47;;;4.00;;
23782;SDS011;12071;50.850;4.446;2024-01-30T01:40:54;6.47;;;3.78;;
23782;SDS011;12071;50.850;4.446;2024-01-30T01:43:20;8.18;;;4.35;;
23782;SDS011;12071;50.850;4.446;2024-01-30T01:45:45;7.53;;;4.07;;
23782;SDS011;12071;50.850;4.446;2024-01-30T01:48:11;5.68;;;3.92;;
23782;SDS011;12071;50.850;4.446;2024-01-30T01:50:38;7.00;;;4.43;;
23782;SDS011;12071;50.850;4.446;2024-01-30T01:53:05;6.10;;;4.22;;
23782;SDS011;12071;50.850;4.446;2024-01-30T01:55:33;5.88;;;3.92;;
23782;SDS011;12071;50.850;4.446;2024-01-30T01:58:00;5.63;;;3.88;;
23782;SDS011;12071;50.850;4.446;2024-01-30T02:00:26;7.35;;;3.72;;
23782;SDS011;12071;50.850;4.446;2024-01-30T02:02:52;9.98;;;4.90;;
23782;SDS011;12071;50.850;4.446;2024-01-30T02:05:19;8.90;;;4.47;;
23782;SDS011;12071;50.850;4.446;2024-01-30T02:07:46;5.32;;;4.07;;
23782;SDS011;12071;50.850;4.446;2024-01-30T02:10:12;5.25;;;3.63;;
23782;SDS011;12071;50.850;4.446;2024-01-30T02:12:38;7.80;;;4.00;;
23782;SDS011;12071;50.850;4.446;2024-01-30T02:15:04;5.03;;;3.78;;
23782;SDS011;12071;50.850;4.446;2024-01-30T02:17:30;8.40;;;4.72;;
23782;SDS011;12071;50.850;4.446;2024-01-30T02:19:56;6.32;;;4.10;;
23782;SDS011;12071;50.850;4.446;2024-01-30T02:22:22;5.60;;;4.13;;
23782;SDS011;12071;50.850;4.446;2024-01-30T02:24:48;7.57;;;3.97;;
23782;SDS011;12071;50.850;4.446;2024-01-30T02:27:14;6.70;;;3.90;;
23782;SDS011;12071;50.850;4.446;2024-01-30T02:29:39;6.80;;;4.05;;
23782;SDS011;12071;50.850;4.446;2024-01-30T02:32:05;5.93;;;4.00;;
23782;SDS011;12071;50.850;4.446;2024-01-30T02:34:31;7.97;;;4.15;;
23782;SDS011;12071;50.850;4.446;2024-01-30T02:36:57;6.03;;;3.72;;
23782;SDS011;12071;50.850;4.446;2024-01-30T02:39:22;7.28;;;4.13;;
23782;SDS011;12071;50.850;4.446;2024-01-30T02:41:48;5.35;;;4.03;;
23782;SDS011;12071;50.850;4.446;2024-01-30T02:44:13;4.45;;;3.80;;
23782;SDS011;12071;50.850;4.446;2024-01-30T02:46:39;6.20;;;4.32;;
23782;SDS011;12071;50.850;4.446;2024-01-30T02:49:05;6.53;;;3.80;;
23782;SDS011;12071;50.850;4.446;2024-01-30T02:51:30;5.35;;;3.97;;
23782;SDS011;12071;50.850;4.446;2024-01-30T02:53:56;7.13;;;3.55;;
23782;SDS011;12071;50.850;4.446;2024-01-30T02:56:21;6.57;;;3.83;;
23782;SDS011;12071;50.850;4.446;2024-01-30T02:58:47;7.18;;;3.47;;
23782;SDS011;12071;50.850;4.446;2024-01-30T03:01:13;4.68;;;3.85;;
23782;SDS011;12071;50.850;4.446;2024-01-30T03:03:38;7.45;;;4.32;;
23782;SDS011;12071;50.850;4.446;2024-01-30T03:06:05;8.57;;;4.20;;
23782;SDS011;12071;50.850;4.446;2024-01-30T03:08:32;6.05;;;4.00;;
23782;SDS011;12071;50.850;4.446;2024-01-30T03:10:57;9.27;;;4.00;;
23782;SDS011;12071;50.850;4.446;2024-01-30T03:13:23;7.47;;;4.10;;
23782;SDS011;12071;50.850;4.446;2024-01-30T03:15:50;5.88;;;3.70;;
23782;SDS011;12071;50.850;4.446;2024-01-30T03:18:15;6.75;;;3.90;;
23782;SDS011;12071;50.850;4.446;2024-01-30T03:20:41;5.63;;;3.88;;
23782;SDS011;12071;50.850;4.446;2024-01-30T03:23:07;5.93;;;3.83;;
23782;SDS011;12071;50.850;4.446;2024-01-30T03:25:32;5.95;;;3.97;;
23782;SDS011;12071;50.850;4.446;2024-01-30T03:27:58;5.30;;;3.65;;
23782;SDS011;12071;50.850;4.446;2024-01-30T03:30:23;7.78;;;3.95;;
23782;SDS011;12071;50.850;4.446;2024-01-30T03:32:49;5.38;;;3.50;;
23782;SDS011;12071;50.850;4.446;2024-01-30T03:35:15;6.28;;;4.00;;
23782;SDS011;12071;50.850;4.446;2024-01-30T03:37:40;5.18;;;4.15;;
23782;SDS011;12071;50.850;4.446;2024-01-30T03:40:06;8.63;;;4.13;;
23782;SDS011;12071;50.850;4.446;2024-01-30T03:42:32;6.32;;;3.55;;
23782;SDS011;12071;50.850;4.446;2024-01-30T03:44:58;7.22;;;3.67;;
23782;SDS011;12071;50.850;4.446;2024-01-30T03:47:23;4.35;;;3.67;;
23782;SDS011;12071;50.850;4.446;2024-01-30T03:49:49;8.82;;;3.95;;
23782;SDS011;12071;50.850;4.446;2024-01-30T03:52:14;8.27;;;3.80;;
23782;SDS011;12071;50.850;4.446;2024-01-30T03:54:40;5.85;;;3.92;;
23782;SDS011;12071;50.850;4.446;2024-01-30T03:57:06;4.35;;;3.60;;
23782;SDS011;12071;50.850;4.446;2024-01-30T03:59:31;7.95;;;3.92;;
23782;SDS011;12071;50.850;4.446;2024-01-30T04:01:57;5.63;;;3.92;;
23782;SDS011;12071;50.850;4.446;2024-01-30T04:04:22;4.72;;;3.88;;
23782;SDS011;12071;50.850;4.446;2024-01-30T04:06:48;6.03;;;3.67;;
23782;SDS011;12071;50.850;4.446;2024-01-30T04:09:14;7.85;;;4.20;;
23782;SDS011;12071;50.850;4.446;2024-01-30T04:11:40;4.85;;;3.72;;
23782;SDS011;12071;50.850;4.446;2024-01-30T04:14:06;7.10;;;3.65;;
23782;SDS011;12071;50.850;4.446;2024-01-30T04:16:32;7.10;;;4.35;;
23782;SDS011;12071;50.850;4.446;2024-01-30T04:18:58;5.75;;;4.00;;
23782;SDS011;12071;50.850;4.446;2024-01-30T04:21:24;7.03;;;4.32;;
23782;SDS011;12071;50.850;4.446;2024-01-30T04:23:50;7.72;;;4.07;;
23782;SDS011;12071;50.850;4.446;2024-01-30T04:26:16;7.95;;;4.28;;
23782;SDS011;12071;50.850;4.446;2024-01-30T04:28:42;7.32;;;4.20;;
23782;SDS011;12071;50.850;4.446;2024-01-30T04:31:09;6.22;;;4.15;;
23782;SDS011;12071;50.850;4.446;2024-01-30T04:33:35;7.43;;;4.10;;
23782;SDS011;12071;50.850;4.446;2024-01-30T04:36:01;5.63;;;4.18;;
23782;SDS011;12071;50.850;4.446;2024-01-30T04:38:26;8.25;;;4.35;;
23782;SDS011;12071;50.850;4.446;2024-01-30T04:40:52;5.57;;;4.38;;
23782;SDS011;12071;50.850;4.446;2024-01-30T04:43:17;6.10;;;4.72;;
23782;SDS011;12071;50.850;4.446;2024-01-30T04:45:44;10.52;;;4.75;;
23782;SDS011;12071;50.850;4.446;2024-01-30T04:48:09;9.23;;;4.95;;
23782;SDS011;12071;50.850;4.446;2024-01-30T04:50:35;7.78;;;4.32;;
23782;SDS011;12071;50.850;4.446;2024-01-30T04:53:01;5.15;;;4.30;;
23782;SDS011;12071;50.850;4.446;2024-01-30T04:55:26;7.47;;;4.60;;
23782;SDS011;12071;50.850;4.446;2024-01-30T04:57:52;7.25;;;4.80;;
23782;SDS011;12071;50.850;4.446;2024-01-30T05:00:18;8.40;;;4.47;;
23782;SDS011;12071;50.850;4.446;2024-01-30T05:02:44;7.05;;;4.35;;
23782;SDS011;12071;50.850;4.446;2024-01-30T05:05:09;4.97;;;3.95;;
23782;SDS011;12071;50.850;4.446;2024-01-30T05:07:36;6.40;;;4.10;;
23782;SDS011;12071;50.850;4.446;2024-01-30T05:10:01;10.00;;;4.60;;
23782;SDS011;12071;50.850;4.446;2024-01-30T05:12:28;7.07;;;4.68;;
23782;SDS011;12071;50.850;4.446;2024-01-30T05:14:53;7.68;;;4.20;;
23782;SDS011;12071;50.850;4.446;2024-01-30T05:17:19;7.10;;;4.32;;
23782;SDS011;12071;50.850;4.446;2024-01-30T05:19:45;10.57;;;4.50;;
23782;SDS011;12071;50.850;4.446;2024-01-30T05:22:11;10.93;;;4.80;;
23782;SDS011;12071;50.850;4.446;2024-01-30T05:24:40;6.90;;;4.50;;
23782;SDS011;12071;50.850;4.446;2024-01-30T05:27:07;8.38;;;4.88;;
23782;SDS011;12071;50.850;4.446;2024-01-30T05:29:32;6.03;;;4.25;;
23782;SDS011;12071;50.850;4.446;2024-01-30T05:31:58;10.05;;;4.82;;
23782;SDS011;12071;50.850;4.446;2024-01-30T05:34:24;5.40;;;4.25;;
23782;SDS011;12071;50.850;4.446;2024-01-30T05:36:49;7.75;;;4.45;;
23782;SDS011;12071;50.850;4.446;2024-01-30T05:39:15;6.22;;;5.00;;
23782;SDS011;12071;50.850;4.446;2024-01-30T05:41:41;12.65;;;4.88;;
23782;SDS011;12071;50.850;4.446;2024-01-30T05:44:06;8.75;;;4.55;;
23782;SDS011;12071;50.850;4.446;2024-01-30T05:46:33;8.32;;;4.95;;
23782;SDS011;12071;50.850;4.446;2024-01-30T05:48:58;7.63;;;4.85;;
23782;SDS011;12071;50.850;4.446;2024-01-30T05:51:24;7.88;;;4.65;;
23782;SDS011;12071;50.850;4.446;2024-01-30T05:53:50;7.93;;;4.70;;
23782;SDS011;12071;50.850;4.446;2024-01-30T05:56:15;7.03;;;5.05;;
23782;SDS011;12071;50.850;4.446;2024-01-30T05:58:41;6.53;;;4.72;;
23782;SDS011;12071;50.850;4.446;2024-01-30T06:01:08;6.63;;;4.90;;
23782;SDS011;12071;50.850;4.446;2024-01-30T06:03:34;7.07;;;4.35;;
23782;SDS011;12071;50.850;4.446;2024-01-30T06:06:00;8.00;;;4.97;;
23782;SDS011;12071;50.850;4.446;2024-01-30T06:08:25;6.13;;;4.43;;
23782;SDS011;12071;50.850;4.446;2024-01-30T06:10:51;8.60;;;5.00;;
23782;SDS011;12071;50.850;4.446;2024-01-30T06:13:17;12.20;;;5.00;;
23782;SDS011;12071;50.850;4.446;2024-01-30T06:15:42;7.18;;;5.03;;
23782;SDS011;12071;50.850;4.446;2024-01-30T06:18:08;6.60;;;4.70;;
23782;SDS011;12071;50.850;4.446;2024-01-30T06:20:34;8.63;;;4.72;;
23782;SDS011;12071;50.850;4.446;2024-01-30T06:22:59;8.77;;;4.78;;
23782;SDS011;12071;50.850;4.446;2024-01-30T06:25:25;9.35;;;5.32;;
23782;SDS011;12071;50.850;4.446;2024-01-30T06:27:51;9.18;;;4.80;;
23782;SDS011;12071;50.850;4.446;2024-01-30T06:30:17;8.88;;;5.07;;
23782;SDS011;12071;50.850;4.446;2024-01-30T06:32:43;9.57;;;5.57;;
23782;SDS011;12071;50.850;4.446;2024-01-30T06:35:08;8.43;;;5.20;;
23782;SDS011;12071;50.850;4.446;2024-01-30T06:37:35;7.65;;;4.93;;
23782;SDS011;12071;50.850;4.446;2024-01-30T06:40:01;11.95;;;5.20;;
23782;SDS011;12071;50.850;4.446;2024-01-30T06:42:27;8.73;;;5.40;;
23782;SDS011;12071;50.850;4.446;2024-01-30T06:44:53;7.18;;;5.03;;
23782;SDS011;12071;50.850;4.446;2024-01-30T06:47:18;11.27;;;5.70;;
23782;SDS011;12071;50.850;4.446;2024-01-30T06:49:44;8.23;;;4.95;;
23782;SDS011;12071;50.850;4.446;2024-01-30T06:52:10;8.85;;;5.10;;
23782;SDS011;12071;50.850;4.446;2024-01-30T06:54:36;9.65;;;6.30;;
23782;SDS011;12071;50.850;4.446;2024-01-30T06:57:02;6.53;;;5.45;;
23782;SDS011;12071;50.850;4.446;2024-01-30T06:59:28;7.80;;;4.97;;
23782;SDS011;12071;50.850;4.446;2024-01-30T07:01:53;10.35;;;5.30;;
23782;SDS011;12071;50.850;4.446;2024-01-30T07:04:19;6.30;;;4.68;;
23782;SDS011;12071;50.850;4.446;2024-01-30T07:06:45;9.07;;;5.60;;
23782;SDS011;12071;50.850;4.446;2024-01-30T07:09:10;9.27;;;5.50;;
23782;SDS011;12071;50.850;4.446;2024-01-30T07:11:37;7.88;;;5.20;;
23782;SDS011;12071;50.850;4.446;2024-01-30T07:14:02;12.60;;;5.43;;
23782;SDS011;12071;50.850;4.446;2024-01-30T07:16:31;9.70;;;5.63;;
23782;SDS011;12071;50.850;4.446;2024-01-30T07:18:56;9.43;;;5.40;;
23782;SDS011;12071;50.850;4.446;2024-01-30T07:21:23;9.45;;;5.40;;
23782;SDS011;12071;50.850;4.446;2024-01-30T07:23:53;10.05;;;6.20;;
23782;SDS011;12071;50.850;4.446;2024-01-30T07:26:20;8.70;;;5.38;;
23782;SDS011;12071;50.850;4.446;2024-01-30T07:28:45;14.15;;;5.70;;
23782;SDS011;12071;50.850;4.446;2024-01-30T07:31:11;13.40;;;5.38;;
23782;SDS011;12071;50.850;4.446;2024-01-30T07:33:36;7.90;;;4.88;;
23782;SDS011;12071;50.850;4.446;2024-01-30T07:36:02;8.35;;;5.07;;
23782;SDS011;12071;50.850;4.446;2024-01-30T07:38:28;11.32;;;5.53;;
23782;SDS011;12071;50.850;4.446;2024-01-30T07:40:56;11.50;;;5.78;;
23782;SDS011;12071;50.850;4.446;2024-01-30T07:43:22;13.52;;;5.68;;
23782;SDS011;12071;50.850;4.446;2024-01-30T07:45:48;10.23;;;5.90;;
23782;SDS011;12071;50.850;4.446;2024-01-30T07:48:13;10.30;;;5.35;;
23782;SDS011;12071;50.850;4.446;2024-01-30T07:50:39;10.20;;;5.75;;
23782;SDS011;12071;50.850;4.446;2024-01-30T07:53:05;11.65;;;5.65;;
23782;SDS011;12071;50.850;4.446;2024-01-30T07:55:30;10.73;;;5.88;;
23782;SDS011;12071;50.850;4.446;2024-01-30T07:57:57;13.63;;;6.03;;
23782;SDS011;12071;50.850;4.446;2024-01-30T08:00:24;9.93;;;6.00;;
23782;SDS011;12071;50.850;4.446;2024-01-30T08:02:49;10.15;;;6.30;;
23782;SDS011;12071;50.850;4.446;2024-01-30T08:05:16;13.73;;;6.18;;
23782;SDS011;12071;50.850;4.446;2024-01-30T08:07:43;13.43;;;5.80;;
23782;SDS011;12071;50.850;4.446;2024-01-30T08:10:11;15.85;;;6.28;;
23782;SDS011;12071;50.850;4.446;2024-01-30T08:12:37;9.43;;;5.72;;
23782;SDS011;12071;50.850;4.446;2024-01-30T08:15:03;10.48;;;5.80;;
23782;SDS011;12071;50.850;4.446;2024-01-30T08:17:29;11.50;;;6.28;;
23782;SDS011;12071;50.850;4.446;2024-01-30T08:19:55;16.80;;;6.57;;
23782;SDS011;12071;50.850;4.446;2024-01-30T08:22:20;16.10;;;6.35;;
23782;SDS011;12071;50.850;4.446;2024-01-30T08:24:46;13.20;;;5.72;;
23782;SDS011;12071;50.850;4.446;2024-01-30T08:27:11;12.00;;;5.65;;
23782;SDS011;12071;50.850;4.446;2024-01-30T08:29:37;17.67;;;6.30;;
23782;SDS011;12071;50.850;4.446;2024-01-30T08:32:06;12.82;;;6.47;;
23782;SDS011;12071;50.850;4.446;2024-01-30T08:34:32;12.57;;;6.28;;
23782;SDS011;12071;50.850;4.446;2024-01-30T08:36:58;13.45;;;6.10;;
23782;SDS011;12071;50.850;4.446;2024-01-30T08:39:23;10.15;;;5.70;;
23782;SDS011;12071;50.850;4.446;2024-01-30T08:41:49;13.98;;;6.30;;
23782;SDS011;12071;50.850;4.446;2024-01-30T08:44:15;12.98;;;6.53;;
23782;SDS011;12071;50.850;4.446;2024-01-30T08:46:41;14.57;;;6.40;;
23782;SDS011;12071;50.850;4.446;2024-01-30T08:49:07;14.20;;;6.90;;
23782;SDS011;12071;50.850;4.446;2024-01-30T08:51:33;15.98;;;6.70;;
23782;SDS011;12071;50.850;4.446;2024-01-30T08:53:58;14.40;;;6.78;;
23782;SDS011;12071;50.850;4.446;2024-01-30T08:56:25;12.90;;;6.35;;
23782;SDS011;12071;50.850;4.446;2024-01-30T08:58:50;13.07;;;6.68;;
23782;SDS011;12071;50.850;4.446;2024-01-30T09:01:16;12.75;;;6.00;;
23782;SDS011;12071;50.850;4.446;2024-01-30T09:03:42;11.45;;;6.85;;
23782;SDS011;12071;50.850;4.446;2024-01-30T09:06:10;16.05;;;6.55;;
23782;SDS011;12071;50.850;4.446;2024-01-30T09:08:36;12.95;;;7.00;;
23782;SDS011;12071;50.850;4.446;2024-01-30T09:11:08;14.00;;;7.10;;
23782;SDS011;12071;50.850;4.446;2024-01-30T09:13:37;12.52;;;6.68;;
23782;SDS011;12071;50.850;4.446;2024-01-30T09:16:03;11.07;;;6.78;;
23782;SDS011;12071;50.850;4.446;2024-01-30T09:18:29;10.98;;;6.70;;
23782;SDS011;12071;50.850;4.446;2024-01-30T09:20:55;14.07;;;6.55;;
23782;SDS011;12071;50.850;4.446;2024-01-30T09:23:22;11.63;;;6.75;;
23782;SDS011;12071;50.850;4.446;2024-01-30T09:25:47;12.38;;;5.82;;
23782;SDS011;12071;50.850;4.446;2024-01-30T09:28:13;15.02;;;6.53;;
23782;SDS011;12071;50.850;4.446;2024-01-30T09:30:39;14.70;;;7.05;;
23782;SDS011;12071;50.850;4.446;2024-01-30T09:33:05;13.48;;;6.53;;
23782;SDS011;12071;50.850;4.446;2024-01-30T09:35:31;15.40;;;7.05;;
23782;SDS011;12071;50.850;4.446;2024-01-30T09:37:57;12.05;;;6.80;;
23782;SDS011;12071;50.850;4.446;2024-01-30T09:40:23;11.73;;;6.70;;
23782;SDS011;12071;50.850;4.446;2024-01-30T09:42:49;13.30;;;6.93;;
23782;SDS011;12071;50.850;4.446;2024-01-30T09:45:17;12.48;;;7.00;;
23782;SDS011;12071;50.850;4.446;2024-01-30T09:47:44;19.15;;;7.32;;
23782;SDS011;12071;50.850;4.446;2024-01-30T09:50:12;14.40;;;8.48;;
23782;SDS011;12071;50.850;4.446;2024-01-30T09:52:39;20.30;;;8.50;;
23782;SDS011;12071;50.850;4.446;2024-01-30T09:55:05;17.90;;;8.15;;
23782;SDS011;12071;50.850;4.446;2024-01-30T09:57:32;16.98;;;8.50;;
23782;SDS011;12071;50.850;4.446;2024-01-30T09:59:58;17.13;;;8.18;;
23782;SDS011;12071;50.850;4.446;2024-01-30T10:02:23;18.00;;;8.98;;
23782;SDS011;12071;50.850;4.446;2024-01-30T10:04:49;16.70;;;7.95;;
23782;SDS011;12071;50.850;4.446;2024-01-30T10:07:16;16.35;;;8.48;;
23782;SDS011;12071;50.850;4.446;2024-01-30T10:09:43;18.90;;;9.05;;
23782;SDS011;12071;50.850;4.446;2024-01-30T10:12:08;16.67;;;8.88;;
23782;SDS011;12071;50.850;4.446;2024-01-30T10:14:41;21.05;;;8.73;;
23782;SDS011;12071;50.850;4.446;2024-01-30T10:17:07;20.02;;;9.98;;
23782;SDS011;12071;50.850;4.446;2024-01-30T10:19:34;22.63;;;9.60;;
23782;SDS011;12071;50.850;4.446;2024-01-30T10:22:00;15.75;;;8.88;;
23782;SDS011;12071;50.850;4.446;2024-01-30T10:24:27;17.38;;;8.30;;
23782;SDS011;12071;50.850;4.446;2024-01-30T10:26:54;18.95;;;9.00;;
23782;SDS011;12071;50.850;4.446;2024-01-30T10:29:20;13.77;;;9.30;;
23782;SDS011;12071;50.850;4.446;2024-01-30T10:31:56;18.23;;;8.93;;
23782;SDS011;12071;50.850;4.446;2024-01-30T10:34:26;18.33;;;9.00;;
23782;SDS011;12071;50.850;4.446;2024-01-30T10:36:55;17.55;;;9.27;;
23782;SDS011;12071;50.850;4.446;2024-01-30T10:39:25;19.63;;;8.43;;
23782;SDS011;12071;50.850;4.446;2024-01-30T10:41:53;19.48;;;9.05;;
23782;SDS011;12071;50.850;4.446;2024-01-30T10:44:24;12.93;;;8.30;;
23782;SDS011;12071;50.850;4.446;2024-01-30T10:46:56;19.77;;;8.40;;
23782;SDS011;12071;50.850;4.446;2024-01-30T10:49:28;15.98;;;8.43;;
23782;SDS011;12071;50.850;4.446;2024-01-30T10:51:54;17.30;;;8.32;;
23782;SDS011;12071;50.850;4.446;2024-01-30T10:54:20;18.15;;;8.15;;
23782;SDS011;12071;50.850;4.446;2024-01-30T10:56:47;16.35;;;8.02;;
23782;SDS011;12071;50.850;4.446;2024-01-30T10:59:14;16.13;;;7.60;;
23782;SDS011;12071;50.850;4.446;2024-01-30T11:01:40;15.05;;;8.40;;
23782;SDS011;12071;50.850;4.446;2024-01-30T11:04:06;16.65;;;7.93;;
23782;SDS011;12071;50.850;4.446;2024-01-30T11:06:32;18.17;;;7.30;;
23782;SDS011;12071;50.850;4.446;2024-01-30T11:09:09;13.75;;;6.47;;
23782;SDS011;12071;50.850;4.446;2024-01-30T11:14:37;11.98;;;6.15;;
23782;SDS011;12071;50.850;4.446;2024-01-30T11:17:05;15.10;;;6.00;;
23782;SDS011;12071;50.850;4.446;2024-01-30T11:19:31;15.18;;;5.50;;
23782;SDS011;12071;50.850;4.446;2024-01-30T11:21:57;14.88;;;5.32;;
23782;SDS011;12071;50.850;4.446;2024-01-30T11:24:24;15.20;;;5.90;;
23782;SDS011;12071;50.850;4.446;2024-01-30T11:26:57;12.07;;;5.72;;
23782;SDS011;12071;50.850;4.446;2024-01-30T11:29:24;11.27;;;4.20;;
23782;SDS011;12071;50.850;4.446;2024-01-30T11:31:52;10.30;;;3.20;;
23782;SDS011;12071;50.850;4.446;2024-01-30T11:34:22;6.97;;;2.58;;
23782;SDS011;12071;50.850;4.446;2024-01-30T11:36:52;5.43;;;2.40;;
23782;SDS011;12071;50.850;4.446;2024-01-30T11:39:24;5.13;;;1.58;;
23782;SDS011;12071;50.850;4.446;2024-01-30T11:41:54;5.07;;;1.80;;
23782;SDS011;12071;50.850;4.446;2024-01-30T11:44:20;4.45;;;1.88;;
23782;SDS011;12071;50.850;4.446;2024-01-30T11:46:51;6.80;;;1.70;;
23782;SDS011;12071;50.850;4.446;2024-01-30T11:49:17;4.72;;;1.40;;
23782;SDS011;12071;50.850;4.446;2024-01-30T11:51:46;4.47;;;1.58;;
23782;SDS011;12071;50.850;4.446;2024-01-30T11:54:17;3.90;;;1.27;;
23782;SDS011;12071;50.850;4.446;2024-01-30T11:56:43;3.38;;;1.40;;
23782;SDS011;12071;50.850;4.446;2024-01-30T11:59:09;4.80;;;1.27;;
23782;SDS011;12071;50.850;4.446;2024-01-30T12:01:34;2.47;;;1.02;;
23782;SDS011;12071;50.850;4.446;2024-01-30T12:04:01;2.78;;;1.10;;
23782;SDS011;12071;50.850;4.446;2024-01-30T12:06:28;6.68;;;1.10;;
23782;SDS011;12071;50.850;4.446;2024-01-30T12:08:57;3.55;;;1.05;;
23782;SDS011;12071;50.850;4.446;2024-01-30T12:11:24;4.00;;;0.95;;
23782;SDS011;12071;50.850;4.446;2024-01-30T12:13:50;3.20;;;0.70;;
23782;SDS011;12071;50.850;4.446;2024-01-30T12:16:17;2.40;;;0.80;;
23782;SDS011;12071;50.850;4.446;2024-01-30T12:18:43;2.42;;;0.50;;
23782;SDS011;12071;50.850;4.446;2024-01-30T12:21:09;2.92;;;0.57;;
23782;SDS011;12071;50.850;4.446;2024-01-30T12:23:35;1.55;;;0.55;;
23782;SDS011;12071;50.850;4.446;2024-01-30T12:26:01;5.35;;;0.70;;
23782;SDS011;12071;50.850;4.446;2024-01-30T12:28:29;4.57;;;0.60;;
23782;SDS011;12071;50.850;4.446;2024-01-30T12:31:01;4.13;;;0.70;;
23782;SDS011;12071;50.850;4.446;2024-01-30T12:33:30;2.75;;;0.60;;
23782;SDS011;12071;50.850;4.446;2024-01-30T12:36:00;1.45;;;0.50;;
23782;SDS011;12071;50.850;4.446;2024-01-30T12:38:27;5.33;;;0.60;;
23782;SDS011;12071;50.850;4.446;2024-01-30T12:40:56;1.50;;;0.40;;
23782;SDS011;12071;50.850;4.446;2024-01-30T12:43:22;1.77;;;0.50;;
23782;SDS011;12071;50.850;4.446;2024-01-30T12:45:49;3.03;;;0.40;;
23782;SDS011;12071;50.850;4.446;2024-01-30T12:48:15;2.40;;;0.38;;
23782;SDS011;12071;50.850;4.446;2024-01-30T12:50:41;2.35;;;0.60;;
23782;SDS011;12071;50.850;4.446;2024-01-30T12:53:07;3.88;;;0.55;;
23782;SDS011;12071;50.850;4.446;2024-01-30T12:55:34;2.58;;;0.85;;
23782;SDS011;12071;50.850;4.446;2024-01-30T12:57:59;6.43;;;1.00;;
23782;SDS011;12071;50.850;4.446;2024-01-30T13:00:25;3.60;;;0.50;;
23782;SDS011;12071;50.850;4.446;2024-01-30T13:02:51;4.57;;;0.55;;
23782;SDS011;12071;50.850;4.446;2024-01-30T13:05:17;3.30;;;0.50;;
23782;SDS011;12071;50.850;4.446;2024-01-30T13:07:42;6.30;;;1.15;;
23782;SDS011;12071;50.850;4.446;2024-01-30T13:10:08;2.30;;;0.52;;
23782;SDS011;12071;50.850;4.446;2024-01-30T13:12:34;2.35;;;0.70;;
23782;SDS011;12071;50.850;4.446;2024-01-30T13:15:00;4.05;;;0.60;;
23782;SDS011;12071;50.850;4.446;2024-01-30T13:17:27;1.65;;;0.52;;
23782;SDS011;12071;50.850;4.446;2024-01-30T13:19:53;5.72;;;0.85;;
23782;SDS011;12071;50.850;4.446;2024-01-30T13:22:19;4.15;;;0.80;;
23782;SDS011;12071;50.850;4.446;2024-01-30T13:24:48;1.92;;;0.57;;
23782;SDS011;12071;50.850;4.446;2024-01-30T13:27:13;6.63;;;0.93;;
23782;SDS011;12071;50.850;4.446;2024-01-30T13:29:39;4.97;;;0.85;;
23782;SDS011;12071;50.850;4.446;2024-01-30T13:32:06;5.63;;;1.10;;
23782;SDS011;12071;50.850;4.446;2024-01-30T13:34:32;7.15;;;0.90;;
23782;SDS011;12071;50.850;4.446;2024-01-30T13:36:57;3.33;;;0.80;;
23782;SDS011;12071;50.850;4.446;2024-01-30T13:39:23;4.15;;;0.75;;
23782;SDS011;12071;50.850;4.446;2024-01-30T13:41:49;6.60;;;0.90;;
23782;SDS011;12071;50.850;4.446;2024-01-30T13:44:15;6.00;;;0.85;;
23782;SDS011;12071;50.850;4.446;2024-01-30T13:46:45;4.80;;;0.93;;
23782;SDS011;12071;50.850;4.446;2024-01-30T13:49:11;5.30;;;0.90;;
23782;SDS011;12071;50.850;4.446;2024-01-30T13:51:37;7.78;;;0.98;;
23782;SDS011;12071;50.850;4.446;2024-01-30T13:54:03;3.97;;;0.88;;
23782;SDS011;12071;50.850;4.446;2024-01-30T13:56:28;4.05;;;0.75;;
23782;SDS011;12071;50.850;4.446;2024-01-30T13:58:55;3.28;;;0.90;;
23782;SDS011;12071;50.850;4.446;2024-01-30T14:01:21;4.80;;;0.82;;
23782;SDS011;12071;50.850;4.446;2024-01-30T14:03:47;5.55;;;0.95;;
23782;SDS011;12071;50.850;4.446;2024-01-30T14:06:14;5.95;;;1.00;;
23782;SDS011;12071;50.850;4.446;2024-01-30T14:08:39;5.53;;;0.68;;
23782;SDS011;12071;50.850;4.446;2024-01-30T14:11:05;8.40;;;0.88;;
23782;SDS011;12071;50.850;4.446;2024-01-30T14:13:31;3.97;;;0.70;;
23782;SDS011;12071;50.850;4.446;2024-01-30T14:15:57;2.45;;;0.70;;
23782;SDS011;12071;50.850;4.446;2024-01-30T14:18:23;5.78;;;0.75;;
23782;SDS011;12071;50.850;4.446;2024-01-30T14:20:50;7.60;;;1.02;;
23782;SDS011;12071;50.850;4.446;2024-01-30T14:23:17;9.02;;;1.00;;
23782;SDS011;12071;50.850;4.446;2024-01-30T14:25:44;6.32;;;1.00;;
23782;SDS011;12071;50.850;4.446;2024-01-30T14:28:09;7.20;;;1.13;;
23782;SDS011;12071;50.850;4.446;2024-01-30T14:30:35;3.08;;;0.80;;
23782;SDS011;12071;50.850;4.446;2024-01-30T14:33:01;4.03;;;0.60;;
23782;SDS011;12071;50.850;4.446;2024-01-30T14:35:27;3.20;;;0.70;;
23782;SDS011;12071;50.850;4.446;2024-01-30T14:37:52;6.05;;;0.80;;
23782;SDS011;12071;50.850;4.446;2024-01-30T14:40:18;5.20;;;0.95;;